createdAt,value
2023-01-11T00:00:57.875Z,1.58
2023-01-11T00:06:01.585Z,2.65
2023-01-11T00:11:13.737Z,1.45
2023-01-11T00:16:18.961Z,0.80
2023-01-11T00:21:23.386Z,3.67
2023-01-11T00:26:26.717Z,2.45
2023-01-11T00:31:33.540Z,0.43
2023-01-11T00:36:36.921Z,1.15
2023-01-11T00:42:03.311Z,1.42
2023-01-11T00:47:31.454Z,2.65
2023-01-11T00:52:36.039Z,0.70
2023-01-11T00:57:46.166Z,1.02
2023-01-11T01:02:51.582Z,1.70
2023-01-11T01:07:55.041Z,0.90
2023-01-11T01:13:15.720Z,0.57
2023-01-11T01:18:20.717Z,4.10
2023-01-11T01:23:25.041Z,0.75
2023-01-11T01:28:29.347Z,0.50
2023-01-11T01:33:33.943Z,1.48
2023-01-11T01:38:47.071Z,0.35
2023-01-11T01:43:54.545Z,1.05
2023-01-11T01:49:05.188Z,1.38
2023-01-11T01:54:21.614Z,0.82
2023-01-11T01:59:27.517Z,0.82
2023-01-11T02:04:40.316Z,0.38
2023-01-11T02:09:47.858Z,1.08
2023-01-11T02:14:55.536Z,0.40
2023-01-11T02:20:09.268Z,1.58
2023-01-11T02:25:44.232Z,0.75
2023-01-11T02:30:56.978Z,0.80
2023-01-11T02:36:09.796Z,0.68
2023-01-11T02:41:22.982Z,0.32
2023-01-11T02:46:34.041Z,0.43
2023-01-11T02:51:43.854Z,1.85
2023-01-11T02:56:50.857Z,0.20
2023-01-11T03:01:59.935Z,0.20
2023-01-11T03:07:20.978Z,0.20
2023-01-11T03:12:55.059Z,1.30
2023-01-11T03:18:10.663Z,0.43
2023-01-11T03:23:22.945Z,1.58
2023-01-11T03:28:33.595Z,1.27
2023-01-11T03:33:44.416Z,0.40
2023-01-11T03:38:53.286Z,1.13
2023-01-11T03:43:59.293Z,1.67
2023-01-11T03:49:09.845Z,0.80
2023-01-11T03:54:24.779Z,0.50
2023-01-11T03:59:28.767Z,2.22
2023-01-11T04:04:33.610Z,0.43
2023-01-11T04:09:39.308Z,0.30
2023-01-11T04:14:43.619Z,0.50
2023-01-11T04:19:48.354Z,1.55
2023-01-11T04:24:52.662Z,0.40
2023-01-11T04:29:56.031Z,0.20
2023-01-11T04:35:00.664Z,0.55
2023-01-11T04:40:04.524Z,0.22
2023-01-11T04:45:08.839Z,0.20
2023-01-11T04:50:20.890Z,0.30
2023-01-11T04:55:27.409Z,1.65
2023-01-11T05:00:30.864Z,0.52
2023-01-11T05:05:40.468Z,0.63
2023-01-11T05:10:44.835Z,0.20
2023-01-11T05:15:53.221Z,0.20
2023-01-11T05:20:57.865Z,0.60
2023-01-11T05:26:05.948Z,1.55
2023-01-11T05:31:09.455Z,0.40
2023-01-11T05:36:17.908Z,1.52
2023-01-11T05:41:23.331Z,0.32
2023-01-11T05:46:27.869Z,0.95
2023-01-11T05:51:34.953Z,0.30
2023-01-11T05:56:38.342Z,1.65
2023-01-11T06:01:41.657Z,0.77
2023-01-11T06:06:48.394Z,2.30
2023-01-11T06:11:55.873Z,0.68
2023-01-11T06:17:03.004Z,0.63
2023-01-11T06:22:15.526Z,0.32
2023-01-11T06:27:19.907Z,0.20
2023-01-11T06:32:23.235Z,0.45
2023-01-11T06:37:28.965Z,0.43
2023-01-11T06:42:32.271Z,0.20
2023-01-11T06:47:35.479Z,0.68
2023-01-11T06:53:05.311Z,0.40
2023-01-11T06:58:09.621Z,0.63
2023-01-11T07:03:13.850Z,1.15
2023-01-11T07:08:18.594Z,0.50
2023-01-11T07:13:22.432Z,0.30
2023-01-11T07:18:25.776Z,0.30
2023-01-11T07:23:30.423Z,0.38
2023-01-11T07:28:33.711Z,0.22
2023-01-11T07:33:36.988Z,0.82
2023-01-11T07:38:42.144Z,0.40
2023-01-11T07:43:45.475Z,0.20
2023-01-11T07:48:51.995Z,0.20
2023-01-11T07:53:56.660Z,0.30
2023-01-11T07:59:00.029Z,1.08
2023-01-11T08:04:03.366Z,0.73
2023-01-11T08:09:08.352Z,0.38
2023-01-11T08:14:33.819Z,0.57
2023-01-11T08:19:37.835Z,0.20
2023-01-11T08:24:42.459Z,0.47
2023-01-11T08:29:45.677Z,0.73
2023-01-11T08:34:49.108Z,0.80
2023-01-11T08:39:55.923Z,0.40
2023-01-11T08:45:00.258Z,0.40
2023-01-11T08:50:03.549Z,0.63
2023-01-11T08:55:08.997Z,0.30
2023-01-11T09:00:13.581Z,0.35
2023-01-11T09:05:18.272Z,0.35
2023-01-11T09:10:26.900Z,0.30
2023-01-11T09:15:30.380Z,0.30
2023-01-11T09:20:33.668Z,1.45
2023-01-11T09:25:38.254Z,1.95
2023-01-11T09:30:41.543Z,0.20
2023-01-11T09:35:46.335Z,0.47
2023-01-11T09:40:59.970Z,1.15
2023-01-11T09:46:09.222Z,0.55
2023-01-11T09:51:15.966Z,0.60
2023-01-11T09:56:27.472Z,0.32
2023-01-11T10:01:39.043Z,0.30
2023-01-11T10:06:53.265Z,0.35
2023-01-11T10:18:39.290Z,0.50
2023-01-11T10:23:15.793Z,4.25
2023-01-11T10:28:29.518Z,0.20
2023-01-11T10:34:06.017Z,0.30
2023-01-11T10:39:35.853Z,0.50
2023-01-11T10:44:47.277Z,0.30
2023-01-11T10:49:55.149Z,0.20
2023-01-11T10:55:03.100Z,0.30
2023-01-11T11:01:08.726Z,0.70
2023-01-11T11:06:19.828Z,1.40
2023-01-11T11:11:55.998Z,0.63
2023-01-11T11:17:18.400Z,1.17
2023-01-11T11:22:22.067Z,0.73
2023-01-11T11:28:08.214Z,0.52
2023-01-11T11:33:20.546Z,0.20
2023-01-11T11:38:25.641Z,0.20
2023-01-11T11:43:33.001Z,0.40
2023-01-11T11:48:37.918Z,0.22
2023-01-11T11:53:44.499Z,0.30
2023-01-11T11:58:48.338Z,1.20
2023-01-11T12:03:55.807Z,0.73
2023-01-11T12:09:02.805Z,0.60
2023-01-11T12:14:18.133Z,0.30
2023-01-11T12:19:43.545Z,2.60
2023-01-11T12:24:47.934Z,0.88
2023-01-11T12:30:08.487Z,0.70
2023-01-11T12:35:35.488Z,0.30
2023-01-11T12:40:50.639Z,1.50
2023-01-11T12:46:02.349Z,0.70
2023-01-11T12:51:19.455Z,0.73
2023-01-11T12:56:41.638Z,0.50
2023-01-11T13:01:56.208Z,0.40
2023-01-11T13:07:19.935Z,0.95
2023-01-11T13:12:30.634Z,1.00
2023-01-11T13:17:41.914Z,0.30
2023-01-11T13:22:51.900Z,1.20
2023-01-11T13:27:58.216Z,0.45
2023-01-11T13:33:07.707Z,0.63
2023-01-11T13:38:26.422Z,0.60
2023-01-11T13:43:40.015Z,0.43
2023-01-11T13:48:47.378Z,0.30
2023-01-11T13:54:01.359Z,0.93
2023-01-11T13:59:10.239Z,0.40
2023-01-11T14:04:21.577Z,0.20
2023-01-11T14:09:53.448Z,0.95
2023-01-11T14:15:18.873Z,0.40
2023-01-11T14:20:29.368Z,2.17
2023-01-11T14:25:38.989Z,0.40
2023-01-11T14:31:05.848Z,0.88
2023-01-11T14:36:30.544Z,0.43
2023-01-11T14:42:12.130Z,0.90
2023-01-11T14:47:45.846Z,0.73
2023-01-11T14:52:54.780Z,0.85
2023-01-11T14:58:16.576Z,0.40
2023-01-11T15:03:49.284Z,0.77
2023-01-11T15:08:56.423Z,0.85
2023-01-11T15:14:04.940Z,1.33
2023-01-11T15:19:34.250Z,1.85
2023-01-11T15:24:44.203Z,0.57
2023-01-11T15:29:55.745Z,0.40
2023-01-11T15:35:31.726Z,0.40
2023-01-11T15:40:40.430Z,2.22
2023-01-11T15:46:29.789Z,0.50
2023-01-11T15:51:54.794Z,0.45
2023-01-11T15:57:54.163Z,0.50
2023-01-11T16:03:39.906Z,1.08
2023-01-11T16:08:56.666Z,0.52
2023-01-11T16:14:30.936Z,1.65
2023-01-11T16:19:44.147Z,2.65
2023-01-11T16:24:56.858Z,0.30
2023-01-11T16:30:18.913Z,0.75
2023-01-11T16:35:24.665Z,0.63
2023-01-11T16:40:37.593Z,0.40
2023-01-11T16:45:43.074Z,1.15
2023-01-11T16:51:01.890Z,0.52
2023-01-11T16:56:08.764Z,0.82
2023-01-11T17:01:15.363Z,0.40
2023-01-11T17:06:20.893Z,1.30
2023-01-11T17:11:34.084Z,0.45
2023-01-11T17:16:40.167Z,0.77
2023-01-11T17:21:50.022Z,2.13
2023-01-11T17:27:01.015Z,1.85
2023-01-11T17:32:08.864Z,1.25
2023-01-11T17:37:20.837Z,1.67
2023-01-11T17:43:06.146Z,1.80
2023-01-11T17:48:15.123Z,4.07
2023-01-11T17:53:50.462Z,7.57
2023-01-11T17:59:17.158Z,3.60
2023-01-11T18:04:24.881Z,1.20
2023-01-11T18:09:49.386Z,1.10
2023-01-11T18:15:01.002Z,1.50
2023-01-11T18:20:25.931Z,2.30
2023-01-11T18:25:32.123Z,2.28
2023-01-11T18:30:42.338Z,2.97
2023-01-11T18:35:58.006Z,2.85
2023-01-11T18:41:45.306Z,0.70
2023-01-11T18:46:50.255Z,3.45
2023-01-11T18:51:54.062Z,1.02
2023-01-11T18:57:14.233Z,0.40
2023-01-11T19:03:04.385Z,5.93
2023-01-11T19:08:33.187Z,3.00
2023-01-11T19:13:59.178Z,0.75
2023-01-11T19:24:31.707Z,0.82
2023-01-11T19:29:52.942Z,1.25
2023-01-11T19:35:08.222Z,2.65
2023-01-11T19:40:15.139Z,1.90
2023-01-11T19:45:25.564Z,1.67
2023-01-11T19:50:29.120Z,1.98
2023-01-11T19:55:33.990Z,3.55
2023-01-11T20:00:37.460Z,2.35
2023-01-11T20:05:41.853Z,2.13
2023-01-11T20:10:51.200Z,3.03
2023-01-11T20:15:58.777Z,3.90
2023-01-11T20:21:02.489Z,2.22
2023-01-11T20:26:14.891Z,1.80
2023-01-11T20:31:18.676Z,4.35
2023-01-11T20:36:23.996Z,3.78
2023-01-11T20:41:48.909Z,3.90
2023-01-11T20:46:53.588Z,3.67
2023-01-11T20:51:58.530Z,5.32
2023-01-11T20:57:12.740Z,3.45
2023-01-11T21:02:20.804Z,6.63
2023-01-11T21:07:26.528Z,1.17
2023-01-11T21:17:46.286Z,3.33
2023-01-11T21:22:51.212Z,1.75
2023-01-11T21:27:57.754Z,4.67
2023-01-11T21:33:01.167Z,1.50
2023-01-11T21:38:04.477Z,7.10
2023-01-11T21:43:14.957Z,4.82
2023-01-11T21:48:18.221Z,4.87
2023-01-11T21:53:30.402Z,7.07
2023-01-11T21:58:40.075Z,5.45
2023-01-11T22:03:53.564Z,7.22
2023-01-11T22:08:56.910Z,7.47
2023-01-11T22:14:02.593Z,7.15
2023-01-11T22:19:10.460Z,3.35
2023-01-11T22:24:14.075Z,3.25
2023-01-11T22:29:29.731Z,5.95
2023-01-11T22:34:40.549Z,6.47
2023-01-11T22:39:43.821Z,9.93
2023-01-11T22:44:53.508Z,1.60
2023-01-11T22:49:56.963Z,10.75
2023-01-11T22:55:04.874Z,6.43
2023-01-11T23:00:13.441Z,3.28
2023-01-11T23:05:23.872Z,4.97
2023-01-11T23:10:27.223Z,4.15
2023-01-11T23:15:33.203Z,8.52
2023-01-11T23:20:38.495Z,10.82
2023-01-11T23:25:42.837Z,7.73
2023-01-11T23:30:47.719Z,8.83
2023-01-11T23:35:57.151Z,4.70
2023-01-11T23:41:24.065Z,4.50
2023-01-11T23:46:46.578Z,2.23
2023-01-11T23:51:50.222Z,5.10
2023-01-11T23:56:55.738Z,6.32
